Apache Acres, Indiana
Current Conditions -  °F | °C
As of 10:58 AM on Monday 22 Dec 2014 (Local Time) from KHUF Reporting Station
Broken Clouds Broken Clouds  
Wind Chill: 32°   Ceiling: 900
Heat Index: 39°   Visibility: 9mi
Dew Point: 34°   Wind: 12mph
Humidity: 82%   Direction: 130°SE
Pressure: 29.88"   Gusts: NA
Location:  39.543°N, 87.3153°W
Report Text: KHUF 221558Z 13010KT 9SM BKN009 BKN035 BKN080 04/01 A2988 RMK AO2 T00390011
Loading
Personal Weather Stations






























Interactive Weather Map New forecast layout! Learn more

10-Day Weather Forecast

Advertisements
Track Severe Weather on mobile